首页
METAR-TAF:

METAR-TAF

机场 :

Leuchars, 苏格兰

纬度: 56-23N, 经度: 002-52W, 海拔: 12米

当前天气观测

该预报发布于46分钟前的18:50 UTC
风速7节,风向西
温度 3°C
湿度 93%
气压 1007 hPa
能见度10公里或以上
少量云层高于4500英尺
多云层高于22000英尺

METAR: EGQL 171850Z 26007KT 9999 FEW045 BKN220 03/02 Q1007 BLU

时间: 19:36 (19:36 UTC)

预报

该预报发布于3小时和8分钟前的16:28 UTC
预报有效从17日的 18点(UTC)到 18日的 03点(UTC)
风速12节,风向西转西南
能见度10公里或以上
少量云层高于4000英尺
几率 30% :
短暂存在
从 17日的 18点(UTC)到 18日的 03点(UTC)
风速15节,风向西,有时为25节阵风

TAF: EGQL 171628Z 1718/1803 24012KT 9999 FEW040 PROB30 TEMPO 1718/1803 26015G25KT

超过4000个机场的气象观测和天气预报(METAR&TAF报告)。

可查询的气象台以黄色和红色小点在地图上表示。

将鼠标移到小点上方,可查看气象台名称。

然后点击查看天气观测和预报。

如需切换地图:点击带黑十字的绿色按钮放大地图;点击带横线的绿色按钮缩小地图;或者点击绿色箭头查看邻近地区的地图。


METAR-TAF: